sensor_id;sensor_type;location;lat;lon;timestamp;temperature;humidity
9973;DHT22;5027;53.560;10.062;2024-02-23T00:02:07;11.50;99.90
9973;DHT22;5027;53.560;10.062;2024-02-23T00:04:33;11.70;99.90
9973;DHT22;5027;53.560;10.062;2024-02-23T00:07:00;11.60;99.90
9973;DHT22;5027;53.560;10.062;2024-02-23T00:09:29;11.60;99.90
9973;DHT22;5027;53.560;10.062;2024-02-23T00:11:56;11.40;99.90
9973;DHT22;5027;53.560;10.062;2024-02-23T00:14:23;11.40;99.90
9973;DHT22;5027;53.560;10.062;2024-02-23T00:16:50;11.40;99.90
9973;DHT22;5027;53.560;10.062;2024-02-23T00:19:17;11.20;99.90
9973;DHT22;5027;53.560;10.062;2024-02-23T00:21:46;11.30;99.90
9973;DHT22;5027;53.560;10.062;2024-02-23T00:24:17;11.30;99.90
9973;DHT22;5027;53.560;10.062;2024-02-23T00:26:43;11.30;99.90
9973;DHT22;5027;53.560;10.062;2024-02-23T00:29:11;11.20;99.90
9973;DHT22;5027;53.560;10.062;2024-02-23T00:31:38;11.00;99.90
9973;DHT22;5027;53.560;10.062;2024-02-23T00:34:07;11.10;99.90
9973;DHT22;5027;53.560;10.062;2024-02-23T00:36:41;11.10;99.90
9973;DHT22;5027;53.560;10.062;2024-02-23T00:39:08;11.00;99.90
9973;DHT22;5027;53.560;10.062;2024-02-23T00:41:35;11.10;99.90
9973;DHT22;5027;53.560;10.062;2024-02-23T00:44:03;11.00;99.90
9973;DHT22;5027;53.560;10.062;2024-02-23T00:46:30;11.20;99.90
9973;DHT22;5027;53.560;10.062;2024-02-23T00:48:57;11.10;99.90
9973;DHT22;5027;53.560;10.062;2024-02-23T00:51:24;11.10;99.90
9973;DHT22;5027;53.560;10.062;2024-02-23T00:53:50;11.10;99.90
9973;DHT22;5027;53.560;10.062;2024-02-23T00:56:17;11.00;99.90
9973;DHT22;5027;53.560;10.062;2024-02-23T00:58:44;11.10;99.90
9973;DHT22;5027;53.560;10.062;2024-02-23T01:01:11;11.10;99.90
9973;DHT22;5027;53.560;10.062;2024-02-23T01:03:37;10.50;99.90
9973;DHT22;5027;53.560;10.062;2024-02-23T01:06:04;10.20;99.90
9973;DHT22;5027;53.560;10.062;2024-02-23T01:08:31;10.20;99.90
9973;DHT22;5027;53.560;10.062;2024-02-23T01:10:58;10.10;99.90
9973;DHT22;5027;53.560;10.062;2024-02-23T01:13:25;10.00;99.90
9973;DHT22;5027;53.560;10.062;2024-02-23T01:15:51;9.90;99.90
9973;DHT22;5027;53.560;10.062;2024-02-23T01:18:20;10.00;99.90
9973;DHT22;5027;53.560;10.062;2024-02-23T01:20:47;10.00;99.90
9973;DHT22;5027;53.560;10.062;2024-02-23T01:23:14;10.00;99.90
9973;DHT22;5027;53.560;10.062;2024-02-23T01:25:40;10.00;99.90
9973;DHT22;5027;53.560;10.062;2024-02-23T01:28:07;10.10;99.90
9973;DHT22;5027;53.560;10.062;2024-02-23T01:30:34;10.20;99.90
9973;DHT22;5027;53.560;10.062;2024-02-23T01:33:01;10.30;99.90
9973;DHT22;5027;53.560;10.062;2024-02-23T01:35:28;10.30;99.90
9973;DHT22;5027;53.560;10.062;2024-02-23T01:37:57;10.10;99.90
9973;DHT22;5027;53.560;10.062;2024-02-23T01:40:23;10.10;99.90
9973;DHT22;5027;53.560;10.062;2024-02-23T01:43:04;10.20;99.90
9973;DHT22;5027;53.560;10.062;2024-02-23T01:45:31;10.10;99.90
9973;DHT22;5027;53.560;10.062;2024-02-23T01:47:59;10.00;99.90
9973;DHT22;5027;53.560;10.062;2024-02-23T01:50:27;9.90;99.90
9973;DHT22;5027;53.560;10.062;2024-02-23T01:52:57;10.30;99.90
9973;DHT22;5027;53.560;10.062;2024-02-23T01:55:27;10.30;99.90
9973;DHT22;5027;53.560;10.062;2024-02-23T01:57:54;10.20;99.90
9973;DHT22;5027;53.560;10.062;2024-02-23T02:00:21;10.10;99.90
9973;DHT22;5027;53.560;10.062;2024-02-23T02:02:52;10.00;99.90
9973;DHT22;5027;53.560;10.062;2024-02-23T02:05:20;10.00;99.90
9973;DHT22;5027;53.560;10.062;2024-02-23T02:07:47;10.10;99.90
9973;DHT22;5027;53.560;10.062;2024-02-23T02:10:17;10.30;99.90
9973;DHT22;5027;53.560;10.062;2024-02-23T02:12:44;10.10;99.90
9973;DHT22;5027;53.560;10.062;2024-02-23T02:15:11;10.40;99.90
9973;DHT22;5027;53.560;10.062;2024-02-23T02:17:37;10.00;99.90
9973;DHT22;5027;53.560;10.062;2024-02-23T02:20:05;10.10;99.90
9973;DHT22;5027;53.560;10.062;2024-02-23T02:22:33;10.10;99.90
9973;DHT22;5027;53.560;10.062;2024-02-23T02:25:00;10.00;99.90
9973;DHT22;5027;53.560;10.062;2024-02-23T02:27:27;9.80;99.90
9973;DHT22;5027;53.560;10.062;2024-02-23T02:29:54;9.80;99.90
9973;DHT22;5027;53.560;10.062;2024-02-23T02:32:21;9.70;99.90
9973;DHT22;5027;53.560;10.062;2024-02-23T02:34:48;9.90;99.90
9973;DHT22;5027;53.560;10.062;2024-02-23T02:37:15;10.10;99.90
9973;DHT22;5027;53.560;10.062;2024-02-23T02:39:42;9.70;99.90
9973;DHT22;5027;53.560;10.062;2024-02-23T02:42:08;9.80;99.90
9973;DHT22;5027;53.560;10.062;2024-02-23T02:44:35;10.00;99.90
9973;DHT22;5027;53.560;10.062;2024-02-23T02:47:02;9.80;99.90
9973;DHT22;5027;53.560;10.062;2024-02-23T02:49:29;9.70;99.90
9973;DHT22;5027;53.560;10.062;2024-02-23T02:51:56;10.10;99.90
9973;DHT22;5027;53.560;10.062;2024-02-23T02:54:24;9.80;99.90
9973;DHT22;5027;53.560;10.062;2024-02-23T02:56:51;9.70;99.90
9973;DHT22;5027;53.560;10.062;2024-02-23T02:59:20;9.80;99.90
9973;DHT22;5027;53.560;10.062;2024-02-23T03:01:49;9.70;99.90
9973;DHT22;5027;53.560;10.062;2024-02-23T03:04:16;9.60;99.90
9973;DHT22;5027;53.560;10.062;2024-02-23T03:06:43;9.70;99.90
9973;DHT22;5027;53.560;10.062;2024-02-23T03:09:09;9.70;99.90
9973;DHT22;5027;53.560;10.062;2024-02-23T03:11:36;9.50;99.90
9973;DHT22;5027;53.560;10.062;2024-02-23T03:14:04;9.60;99.90
9973;DHT22;5027;53.560;10.062;2024-02-23T03:16:31;9.50;99.90
9973;DHT22;5027;53.560;10.062;2024-02-23T03:18:57;9.80;99.90
9973;DHT22;5027;53.560;10.062;2024-02-23T03:21:24;9.50;99.90
9973;DHT22;5027;53.560;10.062;2024-02-23T03:23:51;9.30;99.90
9973;DHT22;5027;53.560;10.062;2024-02-23T03:26:18;9.20;99.90
9973;DHT22;5027;53.560;10.062;2024-02-23T03:28:45;9.30;99.90
9973;DHT22;5027;53.560;10.062;2024-02-23T03:31:11;9.40;99.90
9973;DHT22;5027;53.560;10.062;2024-02-23T03:33:38;9.30;99.90
9973;DHT22;5027;53.560;10.062;2024-02-23T03:36:05;9.50;99.90
9973;DHT22;5027;53.560;10.062;2024-02-23T03:38:32;9.30;99.90
9973;DHT22;5027;53.560;10.062;2024-02-23T03:41:05;9.30;99.90
9973;DHT22;5027;53.560;10.062;2024-02-23T03:43:33;9.00;99.90
9973;DHT22;5027;53.560;10.062;2024-02-23T03:46:00;9.10;99.90
9973;DHT22;5027;53.560;10.062;2024-02-23T03:48:29;9.10;99.90
9973;DHT22;5027;53.560;10.062;2024-02-23T03:50:56;9.10;99.90
9973;DHT22;5027;53.560;10.062;2024-02-23T03:53:23;9.20;99.90
9973;DHT22;5027;53.560;10.062;2024-02-23T03:55:52;9.40;99.90
9973;DHT22;5027;53.560;10.062;2024-02-23T03:58:19;8.90;99.90
9973;DHT22;5027;53.560;10.062;2024-02-23T04:00:46;9.10;99.90
9973;DHT22;5027;53.560;10.062;2024-02-23T04:03:13;9.10;99.90
9973;DHT22;5027;53.560;10.062;2024-02-23T04:05:39;9.10;99.90
9973;DHT22;5027;53.560;10.062;2024-02-23T04:08:06;9.10;99.90
9973;DHT22;5027;53.560;10.062;2024-02-23T04:10:33;9.30;99.90
9973;DHT22;5027;53.560;10.062;2024-02-23T04:13:01;9.00;99.90
9973;DHT22;5027;53.560;10.062;2024-02-23T04:15:27;9.10;99.90
9973;DHT22;5027;53.560;10.062;2024-02-23T04:17:54;9.00;99.90
9973;DHT22;5027;53.560;10.062;2024-02-23T04:20:21;9.00;99.90
9973;DHT22;5027;53.560;10.062;2024-02-23T04:22:48;9.10;99.90
9973;DHT22;5027;53.560;10.062;2024-02-23T04:25:15;9.10;99.90
9973;DHT22;5027;53.560;10.062;2024-02-23T04:27:41;9.10;99.90
9973;DHT22;5027;53.560;10.062;2024-02-23T04:30:10;9.30;99.90
9973;DHT22;5027;53.560;10.062;2024-02-23T04:32:38;9.00;99.90
9973;DHT22;5027;53.560;10.062;2024-02-23T04:35:05;9.10;99.90
9973;DHT22;5027;53.560;10.062;2024-02-23T04:37:32;9.00;99.90
9973;DHT22;5027;53.560;10.062;2024-02-23T04:40:03;8.90;99.90
9973;DHT22;5027;53.560;10.062;2024-02-23T04:42:32;9.20;99.90
9973;DHT22;5027;53.560;10.062;2024-02-23T04:44:58;9.10;99.90
9973;DHT22;5027;53.560;10.062;2024-02-23T04:47:25;9.20;99.90
9973;DHT22;5027;53.560;10.062;2024-02-23T04:49:52;9.10;99.90
9973;DHT22;5027;53.560;10.062;2024-02-23T04:52:19;9.00;99.90
9973;DHT22;5027;53.560;10.062;2024-02-23T04:54:46;8.90;99.90
9973;DHT22;5027;53.560;10.062;2024-02-23T04:57:13;8.80;99.90
9973;DHT22;5027;53.560;10.062;2024-02-23T04:59:40;8.90;99.90
9973;DHT22;5027;53.560;10.062;2024-02-23T05:02:07;8.80;99.90
9973;DHT22;5027;53.560;10.062;2024-02-23T05:04:34;8.80;99.90
9973;DHT22;5027;53.560;10.062;2024-02-23T05:07:01;8.70;99.90
9973;DHT22;5027;53.560;10.062;2024-02-23T05:09:30;8.60;99.90
9973;DHT22;5027;53.560;10.062;2024-02-23T05:11:58;8.60;99.90
9973;DHT22;5027;53.560;10.062;2024-02-23T05:14:26;8.70;99.90
9973;DHT22;5027;53.560;10.062;2024-02-23T05:16:56;8.90;99.90
9973;DHT22;5027;53.560;10.062;2024-02-23T05:19:23;8.80;99.90
9973;DHT22;5027;53.560;10.062;2024-02-23T05:21:50;9.00;99.90
9973;DHT22;5027;53.560;10.062;2024-02-23T05:24:16;8.90;99.90
9973;DHT22;5027;53.560;10.062;2024-02-23T05:26:43;8.80;99.90
9973;DHT22;5027;53.560;10.062;2024-02-23T05:29:11;8.90;99.90
9973;DHT22;5027;53.560;10.062;2024-02-23T05:31:51;9.00;99.90
9973;DHT22;5027;53.560;10.062;2024-02-23T05:34:19;9.10;99.90
9973;DHT22;5027;53.560;10.062;2024-02-23T05:36:46;9.10;99.90
9973;DHT22;5027;53.560;10.062;2024-02-23T05:39:13;9.30;99.90
9973;DHT22;5027;53.560;10.062;2024-02-23T05:41:42;9.00;99.90
9973;DHT22;5027;53.560;10.062;2024-02-23T05:44:09;9.20;99.90
9973;DHT22;5027;53.560;10.062;2024-02-23T05:46:36;9.00;99.90
9973;DHT22;5027;53.560;10.062;2024-02-23T05:49:03;8.80;99.90
9973;DHT22;5027;53.560;10.062;2024-02-23T05:51:31;8.70;99.90
9973;DHT22;5027;53.560;10.062;2024-02-23T05:53:58;9.00;99.90
9973;DHT22;5027;53.560;10.062;2024-02-23T05:56:25;8.80;99.90
9973;DHT22;5027;53.560;10.062;2024-02-23T05:58:52;8.90;99.90
9973;DHT22;5027;53.560;10.062;2024-02-23T06:01:19;8.80;99.90
9973;DHT22;5027;53.560;10.062;2024-02-23T06:03:46;8.80;99.90
9973;DHT22;5027;53.560;10.062;2024-02-23T06:06:15;8.70;99.90
9973;DHT22;5027;53.560;10.062;2024-02-23T06:08:42;8.80;99.90
9973;DHT22;5027;53.560;10.062;2024-02-23T06:11:09;8.70;99.90
9973;DHT22;5027;53.560;10.062;2024-02-23T06:13:37;8.90;99.90
9973;DHT22;5027;53.560;10.062;2024-02-23T06:16:05;8.70;99.90
9973;DHT22;5027;53.560;10.062;2024-02-23T06:18:31;8.70;99.90
9973;DHT22;5027;53.560;10.062;2024-02-23T06:20:58;8.50;99.90
9973;DHT22;5027;53.560;10.062;2024-02-23T06:23:25;8.70;99.90
9973;DHT22;5027;53.560;10.062;2024-02-23T06:25:52;8.80;99.90
9973;DHT22;5027;53.560;10.062;2024-02-23T06:28:19;8.80;99.90
9973;DHT22;5027;53.560;10.062;2024-02-23T06:30:45;8.70;99.90
9973;DHT22;5027;53.560;10.062;2024-02-23T06:33:12;8.90;99.90
9973;DHT22;5027;53.560;10.062;2024-02-23T06:35:39;9.00;99.90
9973;DHT22;5027;53.560;10.062;2024-02-23T06:38:06;8.90;99.90
9973;DHT22;5027;53.560;10.062;2024-02-23T06:40:33;8.70;99.90
9973;DHT22;5027;53.560;10.062;2024-02-23T06:43:17;8.80;99.90
9973;DHT22;5027;53.560;10.062;2024-02-23T06:45:48;8.80;99.90
9973;DHT22;5027;53.560;10.062;2024-02-23T06:48:15;8.70;99.90
9973;DHT22;5027;53.560;10.062;2024-02-23T06:50:42;8.70;99.90
9973;DHT22;5027;53.560;10.062;2024-02-23T06:53:09;9.10;99.90
9973;DHT22;5027;53.560;10.062;2024-02-23T06:55:36;8.90;99.90
9973;DHT22;5027;53.560;10.062;2024-02-23T06:58:03;9.00;99.90
9973;DHT22;5027;53.560;10.062;2024-02-23T07:00:31;8.90;99.90
9973;DHT22;5027;53.560;10.062;2024-02-23T07:02:58;9.10;99.90
9973;DHT22;5027;53.560;10.062;2024-02-23T07:05:25;8.90;99.90
9973;DHT22;5027;53.560;10.062;2024-02-23T07:07:52;8.80;99.90
9973;DHT22;5027;53.560;10.062;2024-02-23T07:10:19;8.80;99.90
9973;DHT22;5027;53.560;10.062;2024-02-23T07:12:47;8.80;99.90
9973;DHT22;5027;53.560;10.062;2024-02-23T07:15:14;8.80;99.90
9973;DHT22;5027;53.560;10.062;2024-02-23T07:17:40;9.10;99.90
9973;DHT22;5027;53.560;10.062;2024-02-23T07:20:08;8.90;99.90
9973;DHT22;5027;53.560;10.062;2024-02-23T07:22:35;9.10;99.90
9973;DHT22;5027;53.560;10.062;2024-02-23T07:25:03;9.20;99.90
9973;DHT22;5027;53.560;10.062;2024-02-23T07:27:30;9.00;99.90
9973;DHT22;5027;53.560;10.062;2024-02-23T07:29:57;8.90;99.90
9973;DHT22;5027;53.560;10.062;2024-02-23T07:32:24;9.00;99.90
9973;DHT22;5027;53.560;10.062;2024-02-23T07:34:52;9.00;99.90
9973;DHT22;5027;53.560;10.062;2024-02-23T07:37:19;9.00;99.90
9973;DHT22;5027;53.560;10.062;2024-02-23T07:39:46;8.80;99.90
9973;DHT22;5027;53.560;10.062;2024-02-23T07:42:13;8.90;99.90
9973;DHT22;5027;53.560;10.062;2024-02-23T07:44:41;8.90;99.90
9973;DHT22;5027;53.560;10.062;2024-02-23T07:47:08;8.60;99.90
9973;DHT22;5027;53.560;10.062;2024-02-23T07:49:34;9.00;99.90
9973;DHT22;5027;53.560;10.062;2024-02-23T07:52:01;9.20;99.90
9973;DHT22;5027;53.560;10.062;2024-02-23T07:54:28;9.20;99.90
9973;DHT22;5027;53.560;10.062;2024-02-23T07:56:55;9.00;99.90
9973;DHT22;5027;53.560;10.062;2024-02-23T07:59:21;9.00;99.90
9973;DHT22;5027;53.560;10.062;2024-02-23T08:01:48;9.00;99.90
9973;DHT22;5027;53.560;10.062;2024-02-23T08:04:15;9.10;99.90
9973;DHT22;5027;53.560;10.062;2024-02-23T08:06:42;9.30;99.90
9973;DHT22;5027;53.560;10.062;2024-02-23T08:09:09;9.20;99.90
9973;DHT22;5027;53.560;10.062;2024-02-23T08:11:36;9.10;99.90
9973;DHT22;5027;53.560;10.062;2024-02-23T08:14:03;9.30;99.90
9973;DHT22;5027;53.560;10.062;2024-02-23T08:16:30;9.20;99.90
9973;DHT22;5027;53.560;10.062;2024-02-23T08:18:57;9.20;99.90
9973;DHT22;5027;53.560;10.062;2024-02-23T08:21:25;9.20;99.90
9973;DHT22;5027;53.560;10.062;2024-02-23T08:23:52;9.30;99.90
9973;DHT22;5027;53.560;10.062;2024-02-23T08:26:19;9.30;99.90
9973;DHT22;5027;53.560;10.062;2024-02-23T08:28:46;9.60;99.90
9973;DHT22;5027;53.560;10.062;2024-02-23T08:31:12;9.50;99.90
9973;DHT22;5027;53.560;10.062;2024-02-23T08:33:39;9.30;99.90
9973;DHT22;5027;53.560;10.062;2024-02-23T08:36:06;9.40;99.90
9973;DHT22;5027;53.560;10.062;2024-02-23T08:38:33;9.60;99.90
9973;DHT22;5027;53.560;10.062;2024-02-23T08:41:00;9.50;99.90
9973;DHT22;5027;53.560;10.062;2024-02-23T08:43:27;9.30;99.90
9973;DHT22;5027;53.560;10.062;2024-02-23T08:45:53;9.40;99.90
9973;DHT22;5027;53.560;10.062;2024-02-23T08:48:20;9.30;99.90
9973;DHT22;5027;53.560;10.062;2024-02-23T08:50:47;9.30;99.90
9973;DHT22;5027;53.560;10.062;2024-02-23T08:53:14;9.40;99.90
9973;DHT22;5027;53.560;10.062;2024-02-23T08:55:40;9.40;99.90
9973;DHT22;5027;53.560;10.062;2024-02-23T08:58:07;9.50;99.90
9973;DHT22;5027;53.560;10.062;2024-02-23T09:00:34;9.40;99.90
9973;DHT22;5027;53.560;10.062;2024-02-23T09:03:01;9.40;99.90
9973;DHT22;5027;53.560;10.062;2024-02-23T09:05:27;9.50;99.90
9973;DHT22;5027;53.560;10.062;2024-02-23T09:07:54;9.60;99.90
9973;DHT22;5027;53.560;10.062;2024-02-23T09:10:21;9.60;99.90
9973;DHT22;5027;53.560;10.062;2024-02-23T09:12:48;9.40;99.90
9973;DHT22;5027;53.560;10.062;2024-02-23T09:15:15;9.30;99.90
9973;DHT22;5027;53.560;10.062;2024-02-23T09:17:42;9.30;99.90
9973;DHT22;5027;53.560;10.062;2024-02-23T09:20:09;9.50;99.90
9973;DHT22;5027;53.560;10.062;2024-02-23T09:22:36;9.60;99.90
9973;DHT22;5027;53.560;10.062;2024-02-23T09:25:04;9.50;99.90
9973;DHT22;5027;53.560;10.062;2024-02-23T09:27:32;9.50;99.90
9973;DHT22;5027;53.560;10.062;2024-02-23T09:29:58;9.50;99.90
9973;DHT22;5027;53.560;10.062;2024-02-23T09:32:25;9.70;99.90
9973;DHT22;5027;53.560;10.062;2024-02-23T09:34:52;9.70;99.90
9973;DHT22;5027;53.560;10.062;2024-02-23T09:37:19;9.50;99.90
9973;DHT22;5027;53.560;10.062;2024-02-23T09:39:45;9.50;99.90
9973;DHT22;5027;53.560;10.062;2024-02-23T09:42:12;9.70;99.90
9973;DHT22;5027;53.560;10.062;2024-02-23T09:44:39;9.90;99.90
9973;DHT22;5027;53.560;10.062;2024-02-23T09:47:08;10.00;99.90
9973;DHT22;5027;53.560;10.062;2024-02-23T09:49:38;9.80;99.90
9973;DHT22;5027;53.560;10.062;2024-02-23T09:52:10;9.80;99.90
9973;DHT22;5027;53.560;10.062;2024-02-23T09:54:37;9.80;99.90
9973;DHT22;5027;53.560;10.062;2024-02-23T09:57:07;9.70;99.90
9973;DHT22;5027;53.560;10.062;2024-02-23T09:59:35;9.70;99.90
9973;DHT22;5027;53.560;10.062;2024-02-23T10:02:09;9.70;99.90
9973;DHT22;5027;53.560;10.062;2024-02-23T10:04:39;9.70;99.90
9973;DHT22;5027;53.560;10.062;2024-02-23T10:07:07;9.80;99.90
9973;DHT22;5027;53.560;10.062;2024-02-23T10:09:34;9.90;99.90
9973;DHT22;5027;53.560;10.062;2024-02-23T10:12:02;9.70;99.90
9973;DHT22;5027;53.560;10.062;2024-02-23T10:14:29;9.90;99.90
9973;DHT22;5027;53.560;10.062;2024-02-23T10:16:55;9.80;99.90
9973;DHT22;5027;53.560;10.062;2024-02-23T10:19:22;9.70;99.90
9973;DHT22;5027;53.560;10.062;2024-02-23T10:21:56;9.80;99.90
9973;DHT22;5027;53.560;10.062;2024-02-23T10:24:23;9.80;99.90
9973;DHT22;5027;53.560;10.062;2024-02-23T10:26:54;10.10;99.90
9973;DHT22;5027;53.560;10.062;2024-02-23T10:29:21;10.30;99.90
9973;DHT22;5027;53.560;10.062;2024-02-23T10:31:51;10.40;99.90
9973;DHT22;5027;53.560;10.062;2024-02-23T10:34:19;10.30;99.90
9973;DHT22;5027;53.560;10.062;2024-02-23T10:36:47;10.30;99.90
9973;DHT22;5027;53.560;10.062;2024-02-23T10:39:18;10.40;99.90
9973;DHT22;5027;53.560;10.062;2024-02-23T10:41:58;10.40;99.90
9973;DHT22;5027;53.560;10.062;2024-02-23T10:44:28;10.50;99.90
9973;DHT22;5027;53.560;10.062;2024-02-23T10:46:56;10.40;99.90
9973;DHT22;5027;53.560;10.062;2024-02-23T10:49:24;10.40;99.90
9973;DHT22;5027;53.560;10.062;2024-02-23T10:51:54;10.30;99.90
9973;DHT22;5027;53.560;10.062;2024-02-23T10:54:21;10.30;99.90
9973;DHT22;5027;53.560;10.062;2024-02-23T10:56:50;10.10;99.90
9973;DHT22;5027;53.560;10.062;2024-02-23T10:59:18;10.20;99.90
9973;DHT22;5027;53.560;10.062;2024-02-23T11:01:50;10.20;99.90
9973;DHT22;5027;53.560;10.062;2024-02-23T11:04:19;10.10;99.90
9973;DHT22;5027;53.560;10.062;2024-02-23T11:06:50;10.30;99.90
9973;DHT22;5027;53.560;10.062;2024-02-23T11:09:21;10.30;99.90
9973;DHT22;5027;53.560;10.062;2024-02-23T11:11:54;10.40;99.90
9973;DHT22;5027;53.560;10.062;2024-02-23T11:14:34;10.60;99.90
9973;DHT22;5027;53.560;10.062;2024-02-23T11:17:02;10.60;99.60
9973;DHT22;5027;53.560;10.062;2024-02-23T11:19:37;10.50;99.80
9973;DHT22;5027;53.560;10.062;2024-02-23T11:22:05;10.50;99.70
9973;DHT22;5027;53.560;10.062;2024-02-23T11:24:49;10.30;99.60
9973;DHT22;5027;53.560;10.062;2024-02-23T11:27:20;10.40;99.90
9973;DHT22;5027;53.560;10.062;2024-02-23T11:29:47;10.20;99.90
9973;DHT22;5027;53.560;10.062;2024-02-23T11:32:17;10.20;99.90
9973;DHT22;5027;53.560;10.062;2024-02-23T11:34:55;10.30;99.90
9973;DHT22;5027;53.560;10.062;2024-02-23T11:37:28;10.40;99.90
9973;DHT22;5027;53.560;10.062;2024-02-23T11:39:55;10.20;99.90
9973;DHT22;5027;53.560;10.062;2024-02-23T11:42:23;10.10;99.90
9973;DHT22;5027;53.560;10.062;2024-02-23T11:44:52;10.30;99.90
9973;DHT22;5027;53.560;10.062;2024-02-23T11:47:20;10.30;99.90
9973;DHT22;5027;53.560;10.062;2024-02-23T11:49:47;10.20;99.90
9973;DHT22;5027;53.560;10.062;2024-02-23T11:52:14;10.20;99.90
9973;DHT22;5027;53.560;10.062;2024-02-23T11:54:41;10.40;99.90
9973;DHT22;5027;53.560;10.062;2024-02-23T11:57:08;10.50;99.90
9973;DHT22;5027;53.560;10.062;2024-02-23T11:59:35;10.50;99.90
9973;DHT22;5027;53.560;10.062;2024-02-23T12:02:01;10.40;99.70
9973;DHT22;5027;53.560;10.062;2024-02-23T12:04:31;10.40;99.80
9973;DHT22;5027;53.560;10.062;2024-02-23T12:06:58;10.40;99.30
9973;DHT22;5027;53.560;10.062;2024-02-23T12:09:25;10.40;99.10
9973;DHT22;5027;53.560;10.062;2024-02-23T12:11:52;10.30;98.80
9973;DHT22;5027;53.560;10.062;2024-02-23T12:14:19;10.20;99.00
9973;DHT22;5027;53.560;10.062;2024-02-23T12:16:46;10.30;98.70
9973;DHT22;5027;53.560;10.062;2024-02-23T12:19:12;10.20;99.20
9973;DHT22;5027;53.560;10.062;2024-02-23T12:21:45;10.20;98.90
9973;DHT22;5027;53.560;10.062;2024-02-23T12:24:12;10.20;99.30
9973;DHT22;5027;53.560;10.062;2024-02-23T12:26:39;10.20;99.20
9973;DHT22;5027;53.560;10.062;2024-02-23T12:29:06;10.20;99.00
9973;DHT22;5027;53.560;10.062;2024-02-23T12:31:33;10.30;98.90
9973;DHT22;5027;53.560;10.062;2024-02-23T12:34:00;10.40;99.30
9973;DHT22;5027;53.560;10.062;2024-02-23T12:36:28;10.40;98.60
9973;DHT22;5027;53.560;10.062;2024-02-23T12:38:55;10.20;98.40
9973;DHT22;5027;53.560;10.062;2024-02-23T12:41:22;10.40;98.80
9973;DHT22;5027;53.560;10.062;2024-02-23T12:43:49;10.50;99.20
9973;DHT22;5027;53.560;10.062;2024-02-23T12:46:16;10.50;98.70
9973;DHT22;5027;53.560;10.062;2024-02-23T12:48:42;10.60;99.90
9973;DHT22;5027;53.560;10.062;2024-02-23T12:51:09;10.50;98.30
9973;DHT22;5027;53.560;10.062;2024-02-23T12:53:37;10.40;98.20
9973;DHT22;5027;53.560;10.062;2024-02-23T12:56:06;10.40;97.90
9973;DHT22;5027;53.560;10.062;2024-02-23T12:58:37;10.40;98.10
9973;DHT22;5027;53.560;10.062;2024-02-23T13:01:04;10.40;98.60
9973;DHT22;5027;53.560;10.062;2024-02-23T13:03:34;10.30;98.00
9973;DHT22;5027;53.560;10.062;2024-02-23T13:06:02;10.30;98.10
9973;DHT22;5027;53.560;10.062;2024-02-23T13:08:29;10.50;98.10
9973;DHT22;5027;53.560;10.062;2024-02-23T13:10:57;10.50;98.20
9973;DHT22;5027;53.560;10.062;2024-02-23T13:13:24;10.50;98.10
9973;DHT22;5027;53.560;10.062;2024-02-23T13:15:52;10.60;98.10
9973;DHT22;5027;53.560;10.062;2024-02-23T13:18:20;10.50;97.80
9973;DHT22;5027;53.560;10.062;2024-02-23T13:20:47;10.60;98.20
9973;DHT22;5027;53.560;10.062;2024-02-23T13:23:14;10.40;98.40
9973;DHT22;5027;53.560;10.062;2024-02-23T13:25:42;10.50;98.10
9973;DHT22;5027;53.560;10.062;2024-02-23T13:28:10;10.70;98.30
9973;DHT22;5027;53.560;10.062;2024-02-23T13:30:37;10.50;97.70
9973;DHT22;5027;53.560;10.062;2024-02-23T13:33:04;10.60;97.90
9973;DHT22;5027;53.560;10.062;2024-02-23T13:35:32;10.60;97.70
9973;DHT22;5027;53.560;10.062;2024-02-23T13:38:02;10.60;97.50
9973;DHT22;5027;53.560;10.062;2024-02-23T13:40:32;10.50;98.20
9973;DHT22;5027;53.560;10.062;2024-02-23T13:42:59;10.50;97.90
9973;DHT22;5027;53.560;10.062;2024-02-23T13:45:26;10.70;98.00
9973;DHT22;5027;53.560;10.062;2024-02-23T13:48:00;10.50;97.60
9973;DHT22;5027;53.560;10.062;2024-02-23T13:50:28;10.60;97.50
9973;DHT22;5027;53.560;10.062;2024-02-23T13:52:55;10.70;98.20
9973;DHT22;5027;53.560;10.062;2024-02-23T13:55:22;10.50;97.80
9973;DHT22;5027;53.560;10.062;2024-02-23T13:57:50;10.60;97.50
9973;DHT22;5027;53.560;10.062;2024-02-23T14:00:17;10.60;97.80
9973;DHT22;5027;53.560;10.062;2024-02-23T14:02:46;10.60;97.80
9973;DHT22;5027;53.560;10.062;2024-02-23T14:05:14;10.60;97.70
9973;DHT22;5027;53.560;10.062;2024-02-23T14:07:45;10.60;97.30
9973;DHT22;5027;53.560;10.062;2024-02-23T14:10:12;10.50;97.20
9973;DHT22;5027;53.560;10.062;2024-02-23T14:12:39;10.50;97.70
9973;DHT22;5027;53.560;10.062;2024-02-23T14:15:07;10.50;97.50
9973;DHT22;5027;53.560;10.062;2024-02-23T14:17:33;10.50;97.50
9973;DHT22;5027;53.560;10.062;2024-02-23T14:20:02;10.50;97.10
9973;DHT22;5027;53.560;10.062;2024-02-23T14:22:30;10.60;97.30
9973;DHT22;5027;53.560;10.062;2024-02-23T14:24:57;10.60;97.20
9973;DHT22;5027;53.560;10.062;2024-02-23T14:27:25;10.70;97.10
9973;DHT22;5027;53.560;10.062;2024-02-23T14:29:56;10.70;97.40
9973;DHT22;5027;53.560;10.062;2024-02-23T14:32:23;10.70;97.40
9973;DHT22;5027;53.560;10.062;2024-02-23T14:34:50;10.90;97.10
9973;DHT22;5027;53.560;10.062;2024-02-23T14:37:16;10.90;97.20
9973;DHT22;5027;53.560;10.062;2024-02-23T14:39:43;10.90;97.20
9973;DHT22;5027;53.560;10.062;2024-02-23T14:42:13;10.90;97.20
9973;DHT22;5027;53.560;10.062;2024-02-23T14:44:40;10.90;97.50
9973;DHT22;5027;53.560;10.062;2024-02-23T14:47:06;10.90;97.50
9973;DHT22;5027;53.560;10.062;2024-02-23T14:49:33;11.10;97.30
9973;DHT22;5027;53.560;10.062;2024-02-23T14:52:00;11.00;97.00
9973;DHT22;5027;53.560;10.062;2024-02-23T14:54:27;11.10;97.30
9973;DHT22;5027;53.560;10.062;2024-02-23T14:56:54;11.10;96.70
9973;DHT22;5027;53.560;10.062;2024-02-23T14:59:21;11.20;97.10
9973;DHT22;5027;53.560;10.062;2024-02-23T15:01:48;11.00;97.00
9973;DHT22;5027;53.560;10.062;2024-02-23T15:04:15;11.10;97.20
9973;DHT22;5027;53.560;10.062;2024-02-23T15:06:44;11.10;97.10
9973;DHT22;5027;53.560;10.062;2024-02-23T15:09:11;11.10;97.30
9973;DHT22;5027;53.560;10.062;2024-02-23T15:11:38;11.20;97.10
9973;DHT22;5027;53.560;10.062;2024-02-23T15:14:05;11.10;97.30
9973;DHT22;5027;53.560;10.062;2024-02-23T15:16:32;11.20;97.40
9973;DHT22;5027;53.560;10.062;2024-02-23T15:18:58;11.20;97.30
9973;DHT22;5027;53.560;10.062;2024-02-23T15:21:26;11.10;97.30
9973;DHT22;5027;53.560;10.062;2024-02-23T15:23:53;11.20;97.60
9973;DHT22;5027;53.560;10.062;2024-02-23T15:26:20;11.20;97.70
9973;DHT22;5027;53.560;10.062;2024-02-23T15:28:47;11.20;97.30
9973;DHT22;5027;53.560;10.062;2024-02-23T15:31:14;11.10;97.50
9973;DHT22;5027;53.560;10.062;2024-02-23T15:33:41;11.20;97.70
9973;DHT22;5027;53.560;10.062;2024-02-23T15:36:08;11.20;97.30
9973;DHT22;5027;53.560;10.062;2024-02-23T15:38:36;11.20;97.30
9973;DHT22;5027;53.560;10.062;2024-02-23T15:41:03;11.20;97.70
9973;DHT22;5027;53.560;10.062;2024-02-23T15:43:31;11.20;97.60
9973;DHT22;5027;53.560;10.062;2024-02-23T15:45:58;11.30;97.60
9973;DHT22;5027;53.560;10.062;2024-02-23T15:48:25;11.40;97.40
9973;DHT22;5027;53.560;10.062;2024-02-23T15:50:53;11.30;97.40
9973;DHT22;5027;53.560;10.062;2024-02-23T15:53:40;11.20;97.30
9973;DHT22;5027;53.560;10.062;2024-02-23T15:56:07;11.20;97.50
9973;DHT22;5027;53.560;10.062;2024-02-23T15:58:34;11.10;97.30